Time,TemperatureF,DewpointF,PressureIn,WindDirection,WindDirectionDegrees,WindSpeedMPH,WindSpeedGustMPH,Humidity,HourlyPrecipIn,Conditions,Clouds,dailyrainin,SoftwareType,DateUTC
2013-05-06 00:08:00,60.8,50.0,30.00,SSE,153,0.0,1.0,67,0.00,,,0.00,weatherlink.com 1.10,2013-05-06 05:08:00,
2013-05-06 00:23:00,60.1,50.0,30.00,SSE,153,0.0,1.0,70,0.00,,,0.00,weatherlink.com 1.10,2013-05-06 05:23:00,
2013-05-06 00:38:00,59.9,50.0,30.00,SSE,153,0.0,1.0,70,0.00,,,0.00,weatherlink.com 1.10,2013-05-06 05:38:00,
2013-05-06 00:53:00,59.9,50.0,30.00,SSE,153,1.0,1.0,70,0.00,,,0.00,weatherlink.com 1.10,2013-05-06 05:53:00,
2013-05-06 01:09:00,59.3,50.0,30.00,ESE,122,1.0,1.0,71,0.00,,,0.00,weatherlink.com 1.10,2013-05-06 06:09:00,
2013-05-06 01:24:00,59.0,50.0,30.00,ESE,120,2.0,2.0,72,0.00,,,0.00,weatherlink.com 1.10,2013-05-06 06:24:00,
2013-05-06 01:39:00,57.9,50.0,30.00,ESE,120,2.0,2.0,74,0.00,,,0.00,weatherlink.com 1.10,2013-05-06 06:39:00,
2013-05-06 01:54:00,57.5,49.0,30.00,SE,129,3.0,3.0,74,0.00,,,0.00,weatherlink.com 1.10,2013-05-06 06:54:00,
2013-05-06 02:09:00,57.3,49.0,30.00,SE,130,2.0,5.0,74,0.00,,,0.00,weatherlink.com 1.10,2013-05-06 07:09:00,
2013-05-06 02:24:00,56.6,49.0,29.99,SE,135,0.0,2.0,75,0.00,,,0.00,weatherlink.com 1.10,2013-05-06 07:24:00,
2013-05-06 02:39:00,56.3,49.0,30.00,SE,134,1.0,1.0,76,0.00,,,0.00,weatherlink.com 1.10,2013-05-06 07:39:00,
2013-05-06 02:54:00,54.7,48.0,29.99,North,10,1.0,2.0,79,0.00,,,0.00,weatherlink.com 1.10,2013-05-06 07:54:00,
2013-05-06 03:09:00,53.5,48.0,29.99,NE,50,1.0,2.0,82,0.00,,,0.00,weatherlink.com 1.10,2013-05-06 08:09:00,
2013-05-06 03:24:00,53.1,48.0,30.00,NNE,33,3.0,3.0,83,0.00,,,0.00,weatherlink.com 1.10,2013-05-06 08:24:00,
2013-05-06 03:39:00,53.2,48.0,30.00,NE,40,2.0,3.0,83,0.00,,,0.00,weatherlink.com 1.10,2013-05-06 08:39:00,
2013-05-06 03:54:00,53.1,48.0,29.99,NNE,30,2.0,3.0,84,0.00,,,0.00,weatherlink.com 1.10,2013-05-06 08:54:00,
2013-05-06 04:09:00,53.1,48.0,30.00,NE,35,1.0,2.0,84,0.00,,,0.00,weatherlink.com 1.10,2013-05-06 09:09:00,
2013-05-06 04:24:00,53.0,48.0,30.00,NNE,29,2.0,3.0,84,0.00,,,0.00,weatherlink.com 1.10,2013-05-06 09:24:00,
2013-05-06 04:39:00,52.8,48.0,30.00,NE,35,3.0,3.0,85,0.00,,,0.00,weatherlink.com 1.10,2013-05-06 09:39:00,
2013-05-06 04:54:00,53.2,49.0,30.00,North,9,5.0,6.0,85,0.00,,,0.00,weatherlink.com 1.10,2013-05-06 09:54:00,
2013-05-06 05:09:00,53.6,49.0,30.00,NE,40,2.0,8.0,84,0.00,,,0.00,weatherlink.com 1.10,2013-05-06 10:09:00,
2013-05-06 05:24:00,53.7,49.0,30.01,NNE,30,1.0,4.0,83,0.00,,,0.00,weatherlink.com 1.10,2013-05-06 10:24:00,
2013-05-06 05:39:00,53.4,49.0,30.01,NNE,16,4.0,4.0,84,0.00,,,0.00,weatherlink.com 1.10,2013-05-06 10:39:00,
2013-05-06 05:54:00,53.2,49.0,30.01,NNE,16,4.0,5.0,84,0.00,,,0.00,weatherlink.com 1.10,2013-05-06 10:54:00,
2013-05-06 06:09:00,53.2,49.0,30.02,NE,54,2.0,6.0,84,0.00,,,0.00,weatherlink.com 1.10,2013-05-06 11:09:00,
2013-05-06 06:24:00,53.1,48.0,30.02,NNE,23,6.0,6.0,83,0.00,,,0.00,weatherlink.com 1.10,2013-05-06 11:24:00,
2013-05-06 06:39:00,52.8,48.0,30.02,ENE,59,4.0,6.0,84,0.00,,,0.00,weatherlink.com 1.10,2013-05-06 11:39:00,
2013-05-06 06:54:00,52.7,48.0,30.02,North,11,4.0,5.0,84,0.00,,,0.00,weatherlink.com 1.10,2013-05-06 11:54:00,
2013-05-06 07:09:00,53.3,48.0,30.03,NNE,23,7.0,8.0,83,0.00,,,0.00,weatherlink.com 1.10,2013-05-06 12:09:00,
2013-05-06 07:25:00,53.7,49.0,30.03,NE,46,6.0,9.0,83,0.00,,,0.00,weatherlink.com 1.10,2013-05-06 12:25:00,
2013-05-06 07:39:00,54.5,49.0,30.03,NNE,23,5.0,10.0,81,0.00,,,0.00,weatherlink.com 1.10,2013-05-06 12:39:00,
2013-05-06 07:54:00,54.9,50.0,30.03,NE,37,4.0,11.0,82,0.00,,,0.00,weatherlink.com 1.10,2013-05-06 12:54:00,
2013-05-06 08:09:00,57.1,50.0,30.04,NE,42,7.0,12.0,78,0.00,,,0.00,weatherlink.com 1.10,2013-05-06 13:09:00,
2013-05-06 08:24:00,57.8,50.0,30.04,ENE,66,8.0,12.0,76,0.00,,,0.00,weatherlink.com 1.10,2013-05-06 13:24:00,
2013-05-06 08:39:00,58.2,51.0,30.04,ENE,71,7.0,11.0,77,0.00,,,0.00,weatherlink.com 1.10,2013-05-06 13:39:00,
2013-05-06 08:55:00,59.7,51.0,30.04,NNE,28,5.0,11.0,74,0.00,,,0.00,weatherlink.com 1.10,2013-05-06 13:55:00,
2013-05-06 09:10:00,60.8,52.0,30.05,NNE,28,5.0,11.0,73,0.00,,,0.00,weatherlink.com 1.10,2013-05-06 14:10:00,
2013-05-06 09:25:00,61.7,53.0,30.04,NNE,16,9.0,9.0,73,0.00,,,0.00,weatherlink.com 1.10,2013-05-06 14:25:00,
2013-05-06 09:40:00,62.5,53.0,30.05,NE,47,7.0,10.0,72,0.00,,,0.00,weatherlink.com 1.10,2013-05-06 14:40:00,
2013-05-06 09:55:00,63.7,54.0,30.05,NE,55,11.0,11.0,70,0.00,,,0.00,weatherlink.com 1.10,2013-05-06 14:55:00,
2013-05-06 10:10:00,64.3,54.0,30.04,NE,46,10.0,12.0,69,0.00,,,0.00,weatherlink.com 1.10,2013-05-06 15:10:00,
2013-05-06 10:25:00,65.0,53.0,30.04,NNE,33,6.0,11.0,65,0.00,,,0.00,weatherlink.com 1.10,2013-05-06 15:25:00,
2013-05-06 10:40:00,66.4,52.0,30.03,NNE,33,9.0,12.0,60,0.00,,,0.00,weatherlink.com 1.10,2013-05-06 15:40:00,
2013-05-06 10:55:00,67.4,51.0,30.03,ENE,63,11.0,13.0,57,0.00,,,0.00,weatherlink.com 1.10,2013-05-06 15:55:00,
2013-05-06 11:10:00,68.2,49.0,30.03,NNW,343,8.0,15.0,50,0.00,,,0.00,weatherlink.com 1.10,2013-05-06 16:10:00,
2013-05-06 11:25:00,69.1,48.0,30.03,ENE,74,8.0,15.0,47,0.00,,,0.00,weatherlink.com 1.10,2013-05-06 16:25:00,
2013-05-06 11:40:00,69.0,48.0,30.02,ESE,102,6.0,14.0,48,0.00,,,0.00,weatherlink.com 1.10,2013-05-06 16:40:00,
2013-05-06 11:55:00,69.6,48.0,30.02,ENE,77,10.0,12.0,47,0.00,,,0.00,weatherlink.com 1.10,2013-05-06 16:55:00,
2013-05-06 12:10:00,70.4,48.0,30.02,East,97,7.0,11.0,45,0.00,,,0.00,weatherlink.com 1.10,2013-05-06 17:10:00,
2013-05-06 12:25:00,70.9,48.0,30.01,ENE,59,8.0,12.0,44,0.00,,,0.00,weatherlink.com 1.10,2013-05-06 17:25:00,
2013-05-06 12:40:00,71.9,47.0,30.00,ESE,104,8.0,12.0,42,0.00,,,0.00,weatherlink.com 1.10,2013-05-06 17:40:00,
2013-05-06 12:55:00,71.6,47.0,30.00,ENE,73,10.0,14.0,41,0.00,,,0.00,weatherlink.com 1.10,2013-05-06 17:55:00,
2013-05-06 13:10:00,71.9,48.0,30.00,East,87,3.0,12.0,43,0.00,,,0.00,weatherlink.com 1.10,2013-05-06 18:10:00,
2013-05-06 13:25:00,73.1,47.0,29.99,ESE,104,3.0,11.0,40,0.00,,,0.00,weatherlink.com 1.10,2013-05-06 18:25:00,
2013-05-06 13:40:00,73.0,47.0,29.99,East,87,2.0,12.0,39,0.00,,,0.00,weatherlink.com 1.10,2013-05-06 18:40:00,
2013-05-06 13:55:00,73.5,47.0,29.99,North,9,4.0,16.0,39,0.00,,,0.00,weatherlink.com 1.10,2013-05-06 18:55:00,
2013-05-06 14:10:00,73.9,48.0,29.98,East,96,12.0,13.0,40,0.00,,,0.00,weatherlink.com 1.10,2013-05-06 19:10:00,
2013-05-06 14:25:00,73.7,46.0,29.98,East,86,11.0,16.0,38,0.00,,,0.00,weatherlink.com 1.10,2013-05-06 19:25:00,
2013-05-06 14:40:00,73.9,48.0,29.98,SE,134,7.0,12.0,40,0.00,,,0.00,weatherlink.com 1.10,2013-05-06 19:40:00,
2013-05-06 14:55:00,74.1,46.0,29.97,ESE,120,1.0,11.0,37,0.00,,,0.00,weatherlink.com 1.10,2013-05-06 19:55:00,
2013-05-06 15:11:00,74.3,47.0,29.97,ENE,61,9.0,15.0,38,0.00,,,0.00,weatherlink.com 1.10,2013-05-06 20:11:00,
2013-05-06 15:26:00,74.6,48.0,29.97,ESE,115,9.0,9.0,39,0.00,,,0.00,weatherlink.com 1.10,2013-05-06 20:26:00,
2013-05-06 15:41:00,74.4,46.0,29.96,ESE,108,6.0,8.0,37,0.00,,,0.00,weatherlink.com 1.10,2013-05-06 20:41:00,
2013-05-06 15:56:00,74.7,47.0,29.96,SE,144,5.0,12.0,37,0.00,,,0.00,weatherlink.com 1.10,2013-05-06 20:56:00,
2013-05-06 16:11:00,74.2,46.0,29.96,East,92,4.0,13.0,37,0.00,,,0.00,weatherlink.com 1.10,2013-05-06 21:11:00,
2013-05-06 16:27:00,74.1,48.0,29.96,ENE,63,5.0,13.0,39,0.00,,,0.00,weatherlink.com 1.10,2013-05-06 21:27:00,
2013-05-06 16:41:00,73.6,47.0,29.96,ENE,70,3.0,9.0,39,0.00,,,0.00,weatherlink.com 1.10,2013-05-06 21:41:00,
2013-05-06 16:56:00,73.5,46.0,29.96,NE,44,4.0,8.0,38,0.00,,,0.00,weatherlink.com 1.10,2013-05-06 21:56:00,
2013-05-06 17:11:00,73.3,48.0,29.96,NNE,29,5.0,7.0,41,0.00,,,0.00,weatherlink.com 1.10,2013-05-06 22:11:00,
2013-05-06 17:26:00,73.0,48.0,29.96,North,5,3.0,8.0,42,0.00,,,0.00,weatherlink.com 1.10,2013-05-06 22:26:00,
2013-05-06 17:41:00,73.1,47.0,29.96,ENE,77,4.0,7.0,39,0.00,,,0.00,weatherlink.com 1.10,2013-05-06 22:41:00,
2013-05-06 17:56:00,72.9,46.0,29.96,ENE,68,3.0,6.0,39,0.00,,,0.00,weatherlink.com 1.10,2013-05-06 22:56:00,
2013-05-06 18:11:00,72.8,48.0,29.96,ENE,67,2.0,4.0,41,0.00,,,0.00,weatherlink.com 1.10,2013-05-06 23:11:00,
2013-05-06 18:26:00,72.4,47.0,29.96,East,90,4.0,5.0,40,0.00,,,0.00,weatherlink.com 1.10,2013-05-06 23:26:00,
2013-05-06 18:41:00,72.2,46.0,29.96,East,94,2.0,4.0,40,0.00,,,0.00,weatherlink.com 1.10,2013-05-06 23:41:00,
2013-05-06 18:56:00,72.0,46.0,29.96,SE,132,2.0,5.0,40,0.00,,,0.00,weatherlink.com 1.10,2013-05-06 23:56:00,
2013-05-06 19:11:00,71.7,47.0,29.96,ENE,75,4.0,4.0,41,0.00,,,0.00,weatherlink.com 1.10,2013-05-07 00:11:00,
2013-05-06 19:26:00,71.1,47.0,29.96,East,92,0.0,4.0,43,0.00,,,0.00,weatherlink.com 1.10,2013-05-07 00:26:00,
2013-05-06 19:41:00,70.7,47.0,29.97,ENE,67,0.0,3.0,43,0.00,,,0.00,weatherlink.com 1.10,2013-05-07 00:41:00,
2013-05-06 19:56:00,70.4,47.0,29.97,ENE,77,0.0,2.0,44,0.00,,,0.00,weatherlink.com 1.10,2013-05-07 00:56:00,
2013-05-06 20:11:00,69.8,47.0,29.97,East,85,2.0,3.0,44,0.00,,,0.00,weatherlink.com 1.10,2013-05-07 01:11:00,
2013-05-06 20:26:00,69.5,47.0,29.97,East,86,3.0,4.0,44,0.00,,,0.00,weatherlink.com 1.10,2013-05-07 01:26:00,
2013-05-06 20:41:00,69.1,46.0,29.97,ESE,102,2.0,3.0,44,0.00,,,0.00,weatherlink.com 1.10,2013-05-07 01:41:00,
2013-05-06 20:55:00,68.8,46.0,29.98,ESE,113,1.0,2.0,45,0.00,,,0.00,weatherlink.com 1.10,2013-05-07 01:55:00,
2013-05-06 21:11:00,68.7,46.0,29.98,East,99,3.0,3.0,45,0.00,,,0.00,weatherlink.com 1.10,2013-05-07 02:11:00,
2013-05-06 21:25:00,68.4,46.0,29.99,ESE,117,1.0,3.0,45,0.00,,,0.00,weatherlink.com 1.10,2013-05-07 02:25:00,
2013-05-06 21:41:00,68.2,46.0,29.99,East,96,3.0,3.0,46,0.00,,,0.00,weatherlink.com 1.10,2013-05-07 02:41:00,
2013-05-06 21:56:00,67.8,47.0,29.99,East,98,0.0,3.0,47,0.00,,,0.00,weatherlink.com 1.10,2013-05-07 02:56:00,
2013-05-06 22:11:00,67.7,47.0,29.99,East,98,0.0,2.0,47,0.00,,,0.00,weatherlink.com 1.10,2013-05-07 03:11:00,
2013-05-06 22:26:00,67.5,46.0,29.99,East,98,0.0,1.0,46,0.00,,,0.00,weatherlink.com 1.10,2013-05-07 03:26:00,
2013-05-06 22:41:00,67.1,46.0,29.99,East,98,1.0,2.0,47,0.00,,,0.00,weatherlink.com 1.10,2013-05-07 03:41:00,
2013-05-06 22:56:00,66.5,47.0,29.99,East,98,1.0,1.0,50,0.00,,,0.00,weatherlink.com 1.10,2013-05-07 03:56:00,
2013-05-06 23:11:00,65.2,46.0,29.99,East,98,0.0,1.0,51,0.00,,,0.00,weatherlink.com 1.10,2013-05-07 04:11:00,
2013-05-06 23:26:00,64.7,48.0,29.99,East,97,1.0,1.0,55,0.00,,,0.00,weatherlink.com 1.10,2013-05-07 04:26:00,
2013-05-06 23:41:00,65.0,47.0,29.99,East,98,0.0,1.0,52,0.00,,,0.00,weatherlink.com 1.10,2013-05-07 04:41:00,
2013-05-06 23:55:00,65.5,47.0,29.99,East,98,1.0,1.0,51,0.00,,,0.00,weatherlink.com 1.10,2013-05-07 04:55:00,